sensor_id;sensor_type;location;lat;lon;timestamp;temperature;humidity
22235;DHT22;11286;45.596;5.284;2023-06-10T00:01:54;20.00;99.90
22235;DHT22;11286;45.596;5.284;2023-06-10T00:04:25;20.00;99.90
22235;DHT22;11286;45.596;5.284;2023-06-10T00:06:51;20.00;99.90
22235;DHT22;11286;45.596;5.284;2023-06-10T00:09:17;19.90;99.90
22235;DHT22;11286;45.596;5.284;2023-06-10T00:11:44;19.90;99.90
22235;DHT22;11286;45.596;5.284;2023-06-10T00:14:10;19.80;99.90
22235;DHT22;11286;45.596;5.284;2023-06-10T00:16:36;19.90;99.90
22235;DHT22;11286;45.596;5.284;2023-06-10T00:19:03;19.80;99.90
22235;DHT22;11286;45.596;5.284;2023-06-10T00:21:30;19.80;99.90
22235;DHT22;11286;45.596;5.284;2023-06-10T00:23:56;19.90;99.90
22235;DHT22;11286;45.596;5.284;2023-06-10T00:26:22;19.90;99.90
22235;DHT22;11286;45.596;5.284;2023-06-10T00:28:48;19.90;99.90
22235;DHT22;11286;45.596;5.284;2023-06-10T00:31:15;20.00;99.90
22235;DHT22;11286;45.596;5.284;2023-06-10T00:33:40;20.10;99.90
22235;DHT22;11286;45.596;5.284;2023-06-10T00:36:06;20.00;99.90
22235;DHT22;11286;45.596;5.284;2023-06-10T00:38:31;20.10;99.90
22235;DHT22;11286;45.596;5.284;2023-06-10T00:40:57;20.00;99.90
22235;DHT22;11286;45.596;5.284;2023-06-10T00:43:23;20.00;99.90
22235;DHT22;11286;45.596;5.284;2023-06-10T00:45:49;19.90;99.90
22235;DHT22;11286;45.596;5.284;2023-06-10T00:48:15;19.80;99.90
22235;DHT22;11286;45.596;5.284;2023-06-10T00:50:40;19.80;99.90
22235;DHT22;11286;45.596;5.284;2023-06-10T00:53:06;19.70;99.90
22235;DHT22;11286;45.596;5.284;2023-06-10T00:55:33;19.60;99.90
22235;DHT22;11286;45.596;5.284;2023-06-10T00:57:59;19.70;99.90
22235;DHT22;11286;45.596;5.284;2023-06-10T01:00:25;19.70;99.90
22235;DHT22;11286;45.596;5.284;2023-06-10T01:02:51;19.60;99.90
22235;DHT22;11286;45.596;5.284;2023-06-10T01:05:20;19.70;99.90
22235;DHT22;11286;45.596;5.284;2023-06-10T01:10:20;19.70;99.90
22235;DHT22;11286;45.596;5.284;2023-06-10T01:12:59;19.60;99.90
22235;DHT22;11286;45.596;5.284;2023-06-10T01:15:29;19.60;99.90
22235;DHT22;11286;45.596;5.284;2023-06-10T01:18:03;19.60;99.90
22235;DHT22;11286;45.596;5.284;2023-06-10T01:20:30;19.60;99.90
22235;DHT22;11286;45.596;5.284;2023-06-10T01:22:58;19.70;99.90
22235;DHT22;11286;45.596;5.284;2023-06-10T01:25:25;19.70;99.90
22235;DHT22;11286;45.596;5.284;2023-06-10T01:28:07;19.80;99.90
22235;DHT22;11286;45.596;5.284;2023-06-10T01:34:00;19.60;99.90
22235;DHT22;11286;45.596;5.284;2023-06-10T01:36:26;19.60;99.90
22235;DHT22;11286;45.596;5.284;2023-06-10T01:38:54;19.60;99.90
22235;DHT22;11286;45.596;5.284;2023-06-10T01:41:21;19.50;99.90
22235;DHT22;11286;45.596;5.284;2023-06-10T01:43:47;19.60;99.90
22235;DHT22;11286;45.596;5.284;2023-06-10T01:46:13;19.60;99.90
22235;DHT22;11286;45.596;5.284;2023-06-10T01:48:40;19.70;99.90
22235;DHT22;11286;45.596;5.284;2023-06-10T01:51:06;19.60;99.90
22235;DHT22;11286;45.596;5.284;2023-06-10T01:53:31;19.70;99.90
22235;DHT22;11286;45.596;5.284;2023-06-10T01:55:57;19.70;99.90
22235;DHT22;11286;45.596;5.284;2023-06-10T01:58:23;19.70;99.90
22235;DHT22;11286;45.596;5.284;2023-06-10T02:00:48;19.80;99.90
22235;DHT22;11286;45.596;5.284;2023-06-10T02:03:14;19.80;99.90
22235;DHT22;11286;45.596;5.284;2023-06-10T02:05:39;19.70;99.90
22235;DHT22;11286;45.596;5.284;2023-06-10T02:08:05;19.70;99.90
22235;DHT22;11286;45.596;5.284;2023-06-10T02:10:31;19.70;99.90
22235;DHT22;11286;45.596;5.284;2023-06-10T02:12:56;19.70;99.90
22235;DHT22;11286;45.596;5.284;2023-06-10T02:15:22;19.70;99.90
22235;DHT22;11286;45.596;5.284;2023-06-10T02:17:48;19.70;99.90
22235;DHT22;11286;45.596;5.284;2023-06-10T02:20:14;19.70;99.90
22235;DHT22;11286;45.596;5.284;2023-06-10T02:22:40;19.70;99.90
22235;DHT22;11286;45.596;5.284;2023-06-10T02:25:06;19.60;99.90
22235;DHT22;11286;45.596;5.284;2023-06-10T02:27:31;19.70;99.90
22235;DHT22;11286;45.596;5.284;2023-06-10T02:29:58;19.60;99.90
22235;DHT22;11286;45.596;5.284;2023-06-10T02:32:23;19.60;99.90
22235;DHT22;11286;45.596;5.284;2023-06-10T02:34:49;19.60;99.90
22235;DHT22;11286;45.596;5.284;2023-06-10T02:37:15;19.70;99.90
22235;DHT22;11286;45.596;5.284;2023-06-10T02:39:41;19.60;99.90
22235;DHT22;11286;45.596;5.284;2023-06-10T02:42:07;19.50;99.90
22235;DHT22;11286;45.596;5.284;2023-06-10T02:44:33;19.60;99.90
22235;DHT22;11286;45.596;5.284;2023-06-10T02:46:58;19.80;99.90
22235;DHT22;11286;45.596;5.284;2023-06-10T02:49:24;19.80;99.90
22235;DHT22;11286;45.596;5.284;2023-06-10T02:51:50;19.70;99.90
22235;DHT22;11286;45.596;5.284;2023-06-10T02:54:19;19.60;99.90
22235;DHT22;11286;45.596;5.284;2023-06-10T02:56:45;19.60;99.90
22235;DHT22;11286;45.596;5.284;2023-06-10T02:59:11;19.60;99.90
22235;DHT22;11286;45.596;5.284;2023-06-10T03:01:36;19.60;99.90
22235;DHT22;11286;45.596;5.284;2023-06-10T03:04:04;19.60;99.90
22235;DHT22;11286;45.596;5.284;2023-06-10T03:06:30;19.60;99.90
22235;DHT22;11286;45.596;5.284;2023-06-10T03:08:55;19.70;99.90
22235;DHT22;11286;45.596;5.284;2023-06-10T03:11:21;19.60;99.90
22235;DHT22;11286;45.596;5.284;2023-06-10T03:13:46;19.70;99.90
22235;DHT22;11286;45.596;5.284;2023-06-10T03:16:12;19.60;99.90
22235;DHT22;11286;45.596;5.284;2023-06-10T03:18:38;19.60;99.90
22235;DHT22;11286;45.596;5.284;2023-06-10T03:21:03;19.60;99.90
22235;DHT22;11286;45.596;5.284;2023-06-10T03:23:29;19.50;99.90
22235;DHT22;11286;45.596;5.284;2023-06-10T03:25:55;19.50;99.90
22235;DHT22;11286;45.596;5.284;2023-06-10T03:28:20;19.50;99.90
22235;DHT22;11286;45.596;5.284;2023-06-10T03:30:47;19.50;99.90
22235;DHT22;11286;45.596;5.284;2023-06-10T03:33:13;19.50;99.90
22235;DHT22;11286;45.596;5.284;2023-06-10T03:35:39;19.60;99.90
22235;DHT22;11286;45.596;5.284;2023-06-10T03:38:05;19.60;99.90
22235;DHT22;11286;45.596;5.284;2023-06-10T03:40:31;19.50;99.90
22235;DHT22;11286;45.596;5.284;2023-06-10T03:42:57;19.50;99.90
22235;DHT22;11286;45.596;5.284;2023-06-10T03:45:23;19.50;99.90
22235;DHT22;11286;45.596;5.284;2023-06-10T03:47:50;19.50;99.90
22235;DHT22;11286;45.596;5.284;2023-06-10T03:50:16;19.50;99.90
22235;DHT22;11286;45.596;5.284;2023-06-10T03:52:41;19.40;99.90
22235;DHT22;11286;45.596;5.284;2023-06-10T03:55:08;19.40;99.90
22235;DHT22;11286;45.596;5.284;2023-06-10T03:57:33;19.40;99.90
22235;DHT22;11286;45.596;5.284;2023-06-10T03:59:59;19.50;99.90
22235;DHT22;11286;45.596;5.284;2023-06-10T04:02:24;19.50;99.90
22235;DHT22;11286;45.596;5.284;2023-06-10T04:04:50;19.50;99.90
22235;DHT22;11286;45.596;5.284;2023-06-10T04:07:16;19.50;99.90
22235;DHT22;11286;45.596;5.284;2023-06-10T04:09:44;19.60;99.90
22235;DHT22;11286;45.596;5.284;2023-06-10T04:12:09;19.70;99.90
22235;DHT22;11286;45.596;5.284;2023-06-10T04:14:36;19.70;99.90
22235;DHT22;11286;45.596;5.284;2023-06-10T04:17:04;19.70;99.90
22235;DHT22;11286;45.596;5.284;2023-06-10T04:19:32;19.60;99.90
22235;DHT22;11286;45.596;5.284;2023-06-10T04:21:58;19.60;99.90
22235;DHT22;11286;45.596;5.284;2023-06-10T04:24:23;19.50;99.90
22235;DHT22;11286;45.596;5.284;2023-06-10T04:26:49;19.50;99.90
22235;DHT22;11286;45.596;5.284;2023-06-10T04:29:15;19.60;99.90
22235;DHT22;11286;45.596;5.284;2023-06-10T04:31:40;19.60;99.90
22235;DHT22;11286;45.596;5.284;2023-06-10T04:34:06;19.60;99.90
22235;DHT22;11286;45.596;5.284;2023-06-10T04:36:33;19.70;99.90
22235;DHT22;11286;45.596;5.284;2023-06-10T04:38:58;19.50;99.90
22235;DHT22;11286;45.596;5.284;2023-06-10T04:41:24;19.50;99.90
22235;DHT22;11286;45.596;5.284;2023-06-10T04:43:51;19.50;99.90
22235;DHT22;11286;45.596;5.284;2023-06-10T04:46:16;19.50;99.90
22235;DHT22;11286;45.596;5.284;2023-06-10T04:48:42;19.60;99.90
22235;DHT22;11286;45.596;5.284;2023-06-10T04:51:08;19.60;99.90
22235;DHT22;11286;45.596;5.284;2023-06-10T04:53:33;19.70;99.90
22235;DHT22;11286;45.596;5.284;2023-06-10T04:55:59;19.70;99.90
22235;DHT22;11286;45.596;5.284;2023-06-10T04:58:24;19.70;99.90
22235;DHT22;11286;45.596;5.284;2023-06-10T05:00:50;19.70;99.90
22235;DHT22;11286;45.596;5.284;2023-06-10T05:03:15;19.70;99.90
22235;DHT22;11286;45.596;5.284;2023-06-10T05:05:41;19.80;99.90
22235;DHT22;11286;45.596;5.284;2023-06-10T05:08:07;19.90;99.90
22235;DHT22;11286;45.596;5.284;2023-06-10T05:10:32;20.00;99.90
22235;DHT22;11286;45.596;5.284;2023-06-10T05:12:59;20.10;99.90
22235;DHT22;11286;45.596;5.284;2023-06-10T05:15:25;20.00;99.90
22235;DHT22;11286;45.596;5.284;2023-06-10T05:17:50;20.20;99.90
22235;DHT22;11286;45.596;5.284;2023-06-10T05:20:17;20.10;99.90
22235;DHT22;11286;45.596;5.284;2023-06-10T05:22:43;20.10;99.90
22235;DHT22;11286;45.596;5.284;2023-06-10T05:25:10;20.20;99.90
22235;DHT22;11286;45.596;5.284;2023-06-10T05:27:35;20.30;99.90
22235;DHT22;11286;45.596;5.284;2023-06-10T05:30:02;20.20;99.90
22235;DHT22;11286;45.596;5.284;2023-06-10T05:32:28;20.30;99.90
22235;DHT22;11286;45.596;5.284;2023-06-10T05:34:54;20.30;99.90
22235;DHT22;11286;45.596;5.284;2023-06-10T05:37:20;20.30;99.90
22235;DHT22;11286;45.596;5.284;2023-06-10T05:39:45;20.30;99.90
22235;DHT22;11286;45.596;5.284;2023-06-10T05:42:11;20.40;99.90
22235;DHT22;11286;45.596;5.284;2023-06-10T05:44:37;20.40;99.90
22235;DHT22;11286;45.596;5.284;2023-06-10T05:47:03;20.40;99.90
22235;DHT22;11286;45.596;5.284;2023-06-10T05:49:28;20.40;99.90
22235;DHT22;11286;45.596;5.284;2023-06-10T05:51:54;20.40;99.90
22235;DHT22;11286;45.596;5.284;2023-06-10T05:54:21;20.40;99.90
22235;DHT22;11286;45.596;5.284;2023-06-10T05:56:47;20.60;99.90
22235;DHT22;11286;45.596;5.284;2023-06-10T05:59:12;20.50;99.90
22235;DHT22;11286;45.596;5.284;2023-06-10T06:01:38;20.40;99.90
22235;DHT22;11286;45.596;5.284;2023-06-10T06:04:04;20.50;99.90
22235;DHT22;11286;45.596;5.284;2023-06-10T06:06:30;20.50;99.90
22235;DHT22;11286;45.596;5.284;2023-06-10T06:08:55;20.50;99.90
22235;DHT22;11286;45.596;5.284;2023-06-10T06:11:21;20.60;99.90
22235;DHT22;11286;45.596;5.284;2023-06-10T06:13:47;20.60;99.90
22235;DHT22;11286;45.596;5.284;2023-06-10T06:16:13;20.70;99.90
22235;DHT22;11286;45.596;5.284;2023-06-10T06:18:39;20.70;99.90
22235;DHT22;11286;45.596;5.284;2023-06-10T06:21:05;20.70;99.90
22235;DHT22;11286;45.596;5.284;2023-06-10T06:23:30;20.70;99.90
22235;DHT22;11286;45.596;5.284;2023-06-10T06:25:56;20.80;99.90
22235;DHT22;11286;45.596;5.284;2023-06-10T06:28:22;20.90;99.90
22235;DHT22;11286;45.596;5.284;2023-06-10T06:30:48;21.10;99.90
22235;DHT22;11286;45.596;5.284;2023-06-10T06:33:13;21.30;99.90
22235;DHT22;11286;45.596;5.284;2023-06-10T06:35:39;21.20;99.90
22235;DHT22;11286;45.596;5.284;2023-06-10T06:38:05;21.30;99.90
22235;DHT22;11286;45.596;5.284;2023-06-10T06:40:31;21.40;99.90
22235;DHT22;11286;45.596;5.284;2023-06-10T06:42:56;21.40;99.90
22235;DHT22;11286;45.596;5.284;2023-06-10T06:45:24;21.50;99.90
22235;DHT22;11286;45.596;5.284;2023-06-10T06:47:50;21.50;99.90
22235;DHT22;11286;45.596;5.284;2023-06-10T06:50:16;21.60;99.90
22235;DHT22;11286;45.596;5.284;2023-06-10T06:52:42;21.60;99.90
22235;DHT22;11286;45.596;5.284;2023-06-10T06:55:08;21.70;99.90
22235;DHT22;11286;45.596;5.284;2023-06-10T06:57:33;21.70;99.90
22235;DHT22;11286;45.596;5.284;2023-06-10T06:59:59;21.80;99.90
22235;DHT22;11286;45.596;5.284;2023-06-10T07:02:24;21.80;99.90
22235;DHT22;11286;45.596;5.284;2023-06-10T07:04:50;21.80;99.90
22235;DHT22;11286;45.596;5.284;2023-06-10T07:07:16;21.90;99.90
22235;DHT22;11286;45.596;5.284;2023-06-10T07:09:41;22.00;99.90
22235;DHT22;11286;45.596;5.284;2023-06-10T07:12:07;22.00;99.90
22235;DHT22;11286;45.596;5.284;2023-06-10T07:14:33;21.90;99.90
22235;DHT22;11286;45.596;5.284;2023-06-10T07:16:59;21.90;99.90
22235;DHT22;11286;45.596;5.284;2023-06-10T07:19:24;21.90;99.90
22235;DHT22;11286;45.596;5.284;2023-06-10T07:21:50;21.90;99.90
22235;DHT22;11286;45.596;5.284;2023-06-10T07:24:15;22.00;99.90
22235;DHT22;11286;45.596;5.284;2023-06-10T07:26:41;22.10;99.90
22235;DHT22;11286;45.596;5.284;2023-06-10T07:29:07;22.20;99.90
22235;DHT22;11286;45.596;5.284;2023-06-10T07:31:32;22.30;99.90
22235;DHT22;11286;45.596;5.284;2023-06-10T07:33:58;22.30;99.90
22235;DHT22;11286;45.596;5.284;2023-06-10T07:36:24;22.40;99.90
22235;DHT22;11286;45.596;5.284;2023-06-10T07:38:53;22.40;99.90
22235;DHT22;11286;45.596;5.284;2023-06-10T07:41:18;22.40;99.90
22235;DHT22;11286;45.596;5.284;2023-06-10T07:43:44;22.40;99.90
22235;DHT22;11286;45.596;5.284;2023-06-10T07:46:10;22.60;99.90
22235;DHT22;11286;45.596;5.284;2023-06-10T07:48:36;22.60;99.90
22235;DHT22;11286;45.596;5.284;2023-06-10T07:51:01;22.60;99.90
22235;DHT22;11286;45.596;5.284;2023-06-10T07:53:27;22.70;99.90
22235;DHT22;11286;45.596;5.284;2023-06-10T07:55:53;22.60;99.90
22235;DHT22;11286;45.596;5.284;2023-06-10T07:58:18;22.60;99.90
22235;DHT22;11286;45.596;5.284;2023-06-10T08:00:44;22.70;99.90
22235;DHT22;11286;45.596;5.284;2023-06-10T08:03:10;22.80;99.90
22235;DHT22;11286;45.596;5.284;2023-06-10T08:05:35;22.80;99.90
22235;DHT22;11286;45.596;5.284;2023-06-10T08:08:01;22.70;99.90
22235;DHT22;11286;45.596;5.284;2023-06-10T08:10:26;22.80;99.90
22235;DHT22;11286;45.596;5.284;2023-06-10T08:12:52;22.70;99.90
22235;DHT22;11286;45.596;5.284;2023-06-10T08:15:17;22.80;99.90
22235;DHT22;11286;45.596;5.284;2023-06-10T08:17:43;23.10;99.90
22235;DHT22;11286;45.596;5.284;2023-06-10T08:20:09;23.10;99.90
22235;DHT22;11286;45.596;5.284;2023-06-10T08:22:35;23.20;99.90
22235;DHT22;11286;45.596;5.284;2023-06-10T08:25:01;23.40;99.90
22235;DHT22;11286;45.596;5.284;2023-06-10T08:27:26;23.60;99.90
22235;DHT22;11286;45.596;5.284;2023-06-10T08:29:52;23.70;99.90
22235;DHT22;11286;45.596;5.284;2023-06-10T08:32:18;23.70;99.90
22235;DHT22;11286;45.596;5.284;2023-06-10T08:34:43;24.10;99.90
22235;DHT22;11286;45.596;5.284;2023-06-10T08:37:09;24.30;99.90
22235;DHT22;11286;45.596;5.284;2023-06-10T08:39:34;24.40;99.90
22235;DHT22;11286;45.596;5.284;2023-06-10T08:44:46;24.50;99.90
22235;DHT22;11286;45.596;5.284;2023-06-10T08:47:14;24.40;99.90
22235;DHT22;11286;45.596;5.284;2023-06-10T08:49:47;24.30;99.90
22235;DHT22;11286;45.596;5.284;2023-06-10T08:52:17;24.20;99.90
22235;DHT22;11286;45.596;5.284;2023-06-10T08:57:22;24.30;99.90
22235;DHT22;11286;45.596;5.284;2023-06-10T08:59:48;24.30;99.90
22235;DHT22;11286;45.596;5.284;2023-06-10T09:02:15;24.40;99.90
22235;DHT22;11286;45.596;5.284;2023-06-10T09:04:44;24.20;99.90
22235;DHT22;11286;45.596;5.284;2023-06-10T09:07:11;24.40;99.90
22235;DHT22;11286;45.596;5.284;2023-06-10T09:09:37;24.20;99.90
22235;DHT22;11286;45.596;5.284;2023-06-10T09:12:04;24.20;99.90
22235;DHT22;11286;45.596;5.284;2023-06-10T09:14:30;24.10;99.90
22235;DHT22;11286;45.596;5.284;2023-06-10T09:16:55;24.10;99.90
22235;DHT22;11286;45.596;5.284;2023-06-10T09:19:24;24.30;99.90
22235;DHT22;11286;45.596;5.284;2023-06-10T09:21:50;24.40;99.90
22235;DHT22;11286;45.596;5.284;2023-06-10T09:24:16;24.50;99.90
22235;DHT22;11286;45.596;5.284;2023-06-10T09:26:43;24.80;99.90
22235;DHT22;11286;45.596;5.284;2023-06-10T09:29:09;24.90;99.90
22235;DHT22;11286;45.596;5.284;2023-06-10T09:31:38;24.80;99.90
22235;DHT22;11286;45.596;5.284;2023-06-10T09:34:11;24.90;99.90
22235;DHT22;11286;45.596;5.284;2023-06-10T09:36:38;25.00;99.90
22235;DHT22;11286;45.596;5.284;2023-06-10T09:39:04;25.00;99.90
22235;DHT22;11286;45.596;5.284;2023-06-10T09:41:39;25.10;99.90
22235;DHT22;11286;45.596;5.284;2023-06-10T09:44:16;25.30;99.90
22235;DHT22;11286;45.596;5.284;2023-06-10T09:46:45;25.40;99.90
22235;DHT22;11286;45.596;5.284;2023-06-10T09:49:11;25.40;99.90
22235;DHT22;11286;45.596;5.284;2023-06-10T09:51:36;25.20;99.90
22235;DHT22;11286;45.596;5.284;2023-06-10T09:54:03;25.40;99.90
22235;DHT22;11286;45.596;5.284;2023-06-10T09:56:35;25.40;99.90
22235;DHT22;11286;45.596;5.284;2023-06-10T09:59:02;25.50;99.90
22235;DHT22;11286;45.596;5.284;2023-06-10T10:01:28;25.70;99.90
22235;DHT22;11286;45.596;5.284;2023-06-10T10:03:55;25.40;99.90
22235;DHT22;11286;45.596;5.284;2023-06-10T10:06:21;25.00;99.90
22235;DHT22;11286;45.596;5.284;2023-06-10T10:08:48;24.80;99.90
22235;DHT22;11286;45.596;5.284;2023-06-10T10:11:17;24.60;99.90
22235;DHT22;11286;45.596;5.284;2023-06-10T10:13:45;24.30;99.90
22235;DHT22;11286;45.596;5.284;2023-06-10T10:16:27;24.40;99.90
22235;DHT22;11286;45.596;5.284;2023-06-10T10:18:57;24.50;99.90
22235;DHT22;11286;45.596;5.284;2023-06-10T10:21:32;24.60;99.90
22235;DHT22;11286;45.596;5.284;2023-06-10T10:24:18;24.60;99.90
22235;DHT22;11286;45.596;5.284;2023-06-10T10:26:46;24.50;99.90
22235;DHT22;11286;45.596;5.284;2023-06-10T10:29:23;24.70;99.90
22235;DHT22;11286;45.596;5.284;2023-06-10T10:31:51;24.90;99.90
22235;DHT22;11286;45.596;5.284;2023-06-10T10:34:25;24.80;99.90
22235;DHT22;11286;45.596;5.284;2023-06-10T10:36:55;24.80;99.90
22235;DHT22;11286;45.596;5.284;2023-06-10T10:39:22;24.90;99.90
22235;DHT22;11286;45.596;5.284;2023-06-10T10:41:48;25.00;99.90
22235;DHT22;11286;45.596;5.284;2023-06-10T10:44:15;25.00;99.90
22235;DHT22;11286;45.596;5.284;2023-06-10T10:46:42;25.20;99.90
22235;DHT22;11286;45.596;5.284;2023-06-10T10:49:09;25.10;99.90
22235;DHT22;11286;45.596;5.284;2023-06-10T10:51:35;25.20;99.90
22235;DHT22;11286;45.596;5.284;2023-06-10T10:54:14;25.20;99.90
22235;DHT22;11286;45.596;5.284;2023-06-10T10:59:55;25.50;99.90
22235;DHT22;11286;45.596;5.284;2023-06-10T11:02:43;25.40;99.90
22235;DHT22;11286;45.596;5.284;2023-06-10T11:05:15;25.50;99.90
22235;DHT22;11286;45.596;5.284;2023-06-10T11:07:52;25.80;99.90
22235;DHT22;11286;45.596;5.284;2023-06-10T11:10:18;25.90;99.90
22235;DHT22;11286;45.596;5.284;2023-06-10T11:12:53;26.00;99.90
22235;DHT22;11286;45.596;5.284;2023-06-10T11:15:27;25.90;99.90
22235;DHT22;11286;45.596;5.284;2023-06-10T11:20:58;26.20;99.90
22235;DHT22;11286;45.596;5.284;2023-06-10T11:33:59;26.40;99.90
22235;DHT22;11286;45.596;5.284;2023-06-10T11:36:26;27.00;99.90
22235;DHT22;11286;45.596;5.284;2023-06-10T11:39:00;27.20;99.90
22235;DHT22;11286;45.596;5.284;2023-06-10T11:41:27;27.30;99.90
22235;DHT22;11286;45.596;5.284;2023-06-10T11:43:54;27.30;99.90
22235;DHT22;11286;45.596;5.284;2023-06-10T11:46:23;27.70;99.90
22235;DHT22;11286;45.596;5.284;2023-06-10T11:48:53;27.80;99.90
22235;DHT22;11286;45.596;5.284;2023-06-10T11:51:19;28.00;99.90
22235;DHT22;11286;45.596;5.284;2023-06-10T11:53:46;28.10;99.90
22235;DHT22;11286;45.596;5.284;2023-06-10T11:56:12;27.90;99.90
22235;DHT22;11286;45.596;5.284;2023-06-10T11:58:43;28.10;99.90
22235;DHT22;11286;45.596;5.284;2023-06-10T12:01:09;28.10;99.90
22235;DHT22;11286;45.596;5.284;2023-06-10T12:03:38;28.00;99.90
22235;DHT22;11286;45.596;5.284;2023-06-10T12:06:05;27.90;99.90
22235;DHT22;11286;45.596;5.284;2023-06-10T12:08:32;27.70;99.90
22235;DHT22;11286;45.596;5.284;2023-06-10T12:10:58;27.60;99.90
22235;DHT22;11286;45.596;5.284;2023-06-10T12:13:27;27.70;99.90
22235;DHT22;11286;45.596;5.284;2023-06-10T12:15:53;27.80;99.90
22235;DHT22;11286;45.596;5.284;2023-06-10T12:18:22;27.70;99.90
22235;DHT22;11286;45.596;5.284;2023-06-10T12:20:50;27.50;99.90
22235;DHT22;11286;45.596;5.284;2023-06-10T12:23:17;27.70;99.90
22235;DHT22;11286;45.596;5.284;2023-06-10T12:25:54;27.40;99.90
22235;DHT22;11286;45.596;5.284;2023-06-10T12:28:24;27.50;99.90
22235;DHT22;11286;45.596;5.284;2023-06-10T12:30:50;27.30;99.90
22235;DHT22;11286;45.596;5.284;2023-06-10T12:33:17;27.50;99.90
22235;DHT22;11286;45.596;5.284;2023-06-10T12:35:52;27.50;99.90
22235;DHT22;11286;45.596;5.284;2023-06-10T12:38:22;27.60;99.90
22235;DHT22;11286;45.596;5.284;2023-06-10T12:40:49;27.80;99.90
22235;DHT22;11286;45.596;5.284;2023-06-10T12:43:23;27.90;99.90
22235;DHT22;11286;45.596;5.284;2023-06-10T12:45:49;28.10;99.90
22235;DHT22;11286;45.596;5.284;2023-06-10T12:48:24;28.20;99.90
22235;DHT22;11286;45.596;5.284;2023-06-10T12:50:52;28.80;99.90
22235;DHT22;11286;45.596;5.284;2023-06-10T12:53:18;29.30;99.90
22235;DHT22;11286;45.596;5.284;2023-06-10T12:55:45;29.40;99.90
22235;DHT22;11286;45.596;5.284;2023-06-10T12:58:11;29.30;99.90
22235;DHT22;11286;45.596;5.284;2023-06-10T13:00:37;29.60;99.90
22235;DHT22;11286;45.596;5.284;2023-06-10T13:03:03;29.80;99.90
22235;DHT22;11286;45.596;5.284;2023-06-10T13:05:31;29.70;99.90
22235;DHT22;11286;45.596;5.284;2023-06-10T13:07:57;29.20;99.90
22235;DHT22;11286;45.596;5.284;2023-06-10T13:10:23;29.80;99.90
22235;DHT22;11286;45.596;5.284;2023-06-10T13:12:50;29.50;99.90
22235;DHT22;11286;45.596;5.284;2023-06-10T13:15:16;29.40;99.90
22235;DHT22;11286;45.596;5.284;2023-06-10T13:17:43;30.20;99.90
22235;DHT22;11286;45.596;5.284;2023-06-10T13:20:09;30.40;99.90
22235;DHT22;11286;45.596;5.284;2023-06-10T13:22:35;30.10;99.90
22235;DHT22;11286;45.596;5.284;2023-06-10T13:25:05;30.20;99.90
22235;DHT22;11286;45.596;5.284;2023-06-10T13:27:37;30.40;99.90
22235;DHT22;11286;45.596;5.284;2023-06-10T13:30:05;30.60;99.90
22235;DHT22;11286;45.596;5.284;2023-06-10T13:32:31;30.40;99.90
22235;DHT22;11286;45.596;5.284;2023-06-10T13:34:57;30.50;99.90
22235;DHT22;11286;45.596;5.284;2023-06-10T13:37:23;30.40;99.90
22235;DHT22;11286;45.596;5.284;2023-06-10T13:39:48;30.40;99.90
22235;DHT22;11286;45.596;5.284;2023-06-10T13:42:19;30.10;99.90
22235;DHT22;11286;45.596;5.284;2023-06-10T13:44:46;30.40;99.90
22235;DHT22;11286;45.596;5.284;2023-06-10T13:47:13;30.20;99.90
22235;DHT22;11286;45.596;5.284;2023-06-10T13:49:38;30.50;99.90
22235;DHT22;11286;45.596;5.284;2023-06-10T13:52:06;30.60;99.90
22235;DHT22;11286;45.596;5.284;2023-06-10T13:54:32;30.30;99.90
22235;DHT22;11286;45.596;5.284;2023-06-10T13:56:57;30.30;99.90
22235;DHT22;11286;45.596;5.284;2023-06-10T13:59:23;29.60;99.90
22235;DHT22;11286;45.596;5.284;2023-06-10T14:01:49;29.90;99.90
22235;DHT22;11286;45.596;5.284;2023-06-10T14:04:16;29.90;99.90
22235;DHT22;11286;45.596;5.284;2023-06-10T14:06:42;30.00;99.90
22235;DHT22;11286;45.596;5.284;2023-06-10T14:09:07;29.90;99.90
22235;DHT22;11286;45.596;5.284;2023-06-10T14:11:33;29.50;99.90
22235;DHT22;11286;45.596;5.284;2023-06-10T14:13:58;29.80;99.90
22235;DHT22;11286;45.596;5.284;2023-06-10T14:16:26;30.00;99.90
22235;DHT22;11286;45.596;5.284;2023-06-10T14:18:51;29.30;99.90
22235;DHT22;11286;45.596;5.284;2023-06-10T14:21:17;29.50;99.90
22235;DHT22;11286;45.596;5.284;2023-06-10T14:23:43;29.50;99.90
22235;DHT22;11286;45.596;5.284;2023-06-10T14:26:09;29.40;99.90
22235;DHT22;11286;45.596;5.284;2023-06-10T14:28:35;29.60;99.90
22235;DHT22;11286;45.596;5.284;2023-06-10T14:31:01;29.50;99.90
22235;DHT22;11286;45.596;5.284;2023-06-10T14:33:26;29.70;99.90
22235;DHT22;11286;45.596;5.284;2023-06-10T14:35:52;29.40;99.90
22235;DHT22;11286;45.596;5.284;2023-06-10T14:38:18;29.10;99.90
22235;DHT22;11286;45.596;5.284;2023-06-10T14:40:44;29.20;99.90
22235;DHT22;11286;45.596;5.284;2023-06-10T14:43:09;29.70;99.90
22235;DHT22;11286;45.596;5.284;2023-06-10T14:45:36;29.70;99.90
22235;DHT22;11286;45.596;5.284;2023-06-10T14:48:03;29.70;99.90
22235;DHT22;11286;45.596;5.284;2023-06-10T14:50:28;29.50;99.90
22235;DHT22;11286;45.596;5.284;2023-06-10T14:52:54;29.90;99.90
22235;DHT22;11286;45.596;5.284;2023-06-10T14:55:20;30.20;99.90
22235;DHT22;11286;45.596;5.284;2023-06-10T14:57:45;29.90;99.90
22235;DHT22;11286;45.596;5.284;2023-06-10T15:00:11;29.40;99.90
22235;DHT22;11286;45.596;5.284;2023-06-10T15:02:40;29.70;99.90
22235;DHT22;11286;45.596;5.284;2023-06-10T15:05:06;30.00;99.90
22235;DHT22;11286;45.596;5.284;2023-06-10T15:07:32;30.10;99.90
22235;DHT22;11286;45.596;5.284;2023-06-10T15:09:57;30.20;99.90
22235;DHT22;11286;45.596;5.284;2023-06-10T15:12:24;30.40;99.90
22235;DHT22;11286;45.596;5.284;2023-06-10T15:14:50;30.10;99.90
22235;DHT22;11286;45.596;5.284;2023-06-10T15:17:16;30.00;99.90
22235;DHT22;11286;45.596;5.284;2023-06-10T15:19:41;30.20;99.90
22235;DHT22;11286;45.596;5.284;2023-06-10T15:22:07;29.90;99.90
22235;DHT22;11286;45.596;5.284;2023-06-10T15:24:32;29.80;99.90
22235;DHT22;11286;45.596;5.284;2023-06-10T15:26:58;30.00;99.90
22235;DHT22;11286;45.596;5.284;2023-06-10T15:29:23;30.10;99.90
22235;DHT22;11286;45.596;5.284;2023-06-10T15:31:49;29.80;99.90
22235;DHT22;11286;45.596;5.284;2023-06-10T15:34:15;29.80;99.90
22235;DHT22;11286;45.596;5.284;2023-06-10T15:36:40;29.50;99.90
22235;DHT22;11286;45.596;5.284;2023-06-10T15:39:06;29.50;99.90
22235;DHT22;11286;45.596;5.284;2023-06-10T15:41:33;29.60;99.90
22235;DHT22;11286;45.596;5.284;2023-06-10T15:43:59;29.80;99.90
22235;DHT22;11286;45.596;5.284;2023-06-10T15:46:28;29.60;99.90
22235;DHT22;11286;45.596;5.284;2023-06-10T15:48:54;29.30;99.90
22235;DHT22;11286;45.596;5.284;2023-06-10T15:51:20;29.50;99.90
22235;DHT22;11286;45.596;5.284;2023-06-10T15:53:46;29.40;99.90
22235;DHT22;11286;45.596;5.284;2023-06-10T15:56:12;29.20;99.90